• Join FlightAware (Why Join?)
  • Login
  • US Flag 
01:26PM EDT


 

Airport Tracker/Info


-or-


 

Live Flight TrackerFlight Track Log ✈ SKW5534 ✈ 04-Nov-2013 ✈ KMSO - KDEN

Flight Track Log - Related Links

Times and Time Zones

All times are in EST time to prevent confusion due to time zone crossing. See the SKW5534 flight status page for this flight to view local times or setup timezone preferences in your user account.

Time Position Orientation Groundspeed Altitude Reporting Facility
EST Latitude Longitude Course Direction KTS MPH feet Rate Location/Type
09:22AM 46.9433 -114.1403 129° Southeast 177 204 5,000  Level Salt Lake Center
09:23AM 46.9800 -114.2031 311° West 200 230 7,700 2,160 Climbing Salt Lake Center
09:24AM 46.6827 -113.7204 139° Southeast  Level Estimated
09:24AM 46.9603 -114.2747 248° West 247 284 9,400  Level Salt Lake Center
09:25AM 46.6045 -113.5977 131° Southeast  Level Estimated
09:25AM 46.8900 -114.2167 151° Southeast 299 344 11,600  Level Salt Lake Center
09:26AM 46.5262 -113.4754 132° Southeast  Level Estimated
09:26AM 46.8344 -114.1203 130° Southeast 313 360 13,600  Level Salt Lake Center
09:27AM 46.4498 -113.3564 129° Southeast  Level Estimated
09:27AM 46.7733 -114.0186 131° Southeast 333 383 15,600  Level Salt Lake Center
09:28AM 46.7053 -113.9044 131° Southeast 346 398 17,600 1,740 Climbing Salt Lake Center
09:29AM 46.6400 -113.7950 131° Southeast 358 412 19,200 1,380 Climbing Salt Lake Center
09:30AM 46.5853 -113.7042 131° Southeast 362 417 20,500 1,260 Climbing Salt Lake Center
09:31AM 46.5167 -113.5908 131° Southeast 373 429 21,800 1,260 Climbing Salt Lake Center
09:32AM 46.4333 -113.4511 131° Southeast 383 441 23,100 1,080 Climbing Salt Lake Center
09:33AM 46.3622 -113.3350 132° Southeast 387 445 24,100 900 Climbing Salt Lake Center
09:34AM 46.2864 -113.2086 131° Southeast 402 463 25,000 780 Climbing Salt Lake Center
09:35AM 46.2094 -113.0861 132° Southeast 404 465 25,800 840 Climbing Salt Lake Center
09:36AM 46.1336 -112.9608 131° Southeast 407 468 26,700 600 Climbing Salt Lake Center
09:37AM 46.0572 -112.8356 131° Southeast 411 473 27,100 480 Climbing Salt Lake Center
09:38AM 45.9781 -112.7086 132° Southeast 417 480 27,700 600 Climbing Salt Lake Center
09:39AM 45.8967 -112.5783 132° Southeast 429 494 28,400 600 Climbing Salt Lake Center
09:40AM 45.8222 -112.4594 132° Southeast 428 493 29,000 600 Climbing Salt Lake Center
09:41AM 45.7417 -112.3311 132° Southeast 426 490 29,700 600 Climbing Salt Lake Center
09:42AM 45.6608 -112.2033 132° Southeast 428 493 30,300 540 Climbing Salt Lake Center
09:43AM 45.5789 -112.0728 132° Southeast 434 499 30,800 480 Climbing Salt Lake Center
09:44AM 45.4961 -111.9428 132° Southeast 436 502 31,300 540 Climbing Salt Lake Center
09:45AM 45.4136 -111.8131 132° Southeast 435 501 31,900 420 Climbing Salt Lake Center
09:46AM 45.3306 -111.6836 132° Southeast 436 502 32,200 360 Climbing Salt Lake Center
09:47AM 45.2461 -111.5536 133° Southeast 440 506 32,700 360 Climbing Salt Lake Center
09:48AM 45.1622 -111.4236 132° Southeast 439 505 33,000 120 Climbing Salt Lake Center
09:49AM 45.0736 -111.2897 133° Southeast 447 514 33,000  Level Salt Lake Center
09:50AM 44.9903 -111.1633 133° Southeast 456 525 33,000  Level Salt Lake Center
09:51AM 44.9064 -111.0361 133° Southeast 459 528 33,000  Level Salt Lake Center
09:52AM 44.8081 -110.8878 133° Southeast 460 529 33,000  Level Salt Lake Center
09:53AM 44.7258 -110.7631 133° Southeast 455 524 33,000  Level Salt Lake Center
09:54AM 44.6419 -110.6381 133° Southeast 457 526 33,000  Level Salt Lake Center
09:55AM 44.5464 -110.4942 133° Southeast 453 521 33,000  Level Salt Lake Center
09:56AM 44.4644 -110.3722 133° Southeast 449 517 33,000  Level Salt Lake Center
09:57AM 44.3814 -110.2514 134° Southeast 448 516 33,000  Level Salt Lake Center
09:58AM 44.2881 -110.1125 133° Southeast 439 505 33,000  Level Salt Lake Center
09:59AM 44.2056 -109.9936 134° Southeast 442 509 33,000  Level Salt Lake Center
10:00AM 44.1239 -109.8739 134° Southeast 445 512 33,000  Level Salt Lake Center
10:01AM 44.0289 -109.7353 134° Southeast 443 510 33,000  Level Salt Lake Center
10:02AM 43.9478 -109.6178 134° Southeast 441 507 33,000  Level Salt Lake Center
10:03AM 43.8508 -109.4817 135° Southeast 444 511 33,000  Level Salt Lake Center
10:04AM 43.7703 -109.3664 134° Southeast 438 504 33,000  Level Salt Lake Center
10:05AM 43.6850 -109.2447 134° Southeast 442 509 33,000  Level Salt Lake Center
10:06AM 43.6003 -109.1250 134° Southeast 439 505 33,000  Level Salt Lake Center
10:07AM 43.5153 -109.0056 134° Southeast 439 505 33,000  Level Salt Lake Center
10:08AM 43.4300 -108.8856 134° Southeast 440 506 33,000  Level Salt Lake Center
10:09AM 43.3444 -108.7644 134° Southeast 443 510 33,000  Level Salt Lake Center
10:10AM 43.2406 -108.6222 135° Southeast 443 510 33,000  Level Salt Lake Center
10:11AM 43.1547 -108.5014 134° Southeast 443 510 33,000  Level Salt Lake Center
10:12AM 43.0667 -108.3800 135° Southeast 448 516 33,000  Level Salt Lake Center
10:14AM 42.9797 -108.2581 134° Southeast 449 517 33,000  Level Salt Lake Center
10:15AM 42.8900 -108.1375 135° Southeast 443 510 33,000  Level Salt Lake Center
10:16AM 42.8061 -108.0211 134° Southeast 447 514 33,000  Level Salt Lake Center
10:17AM 42.7078 -107.8867 135° Southeast 449 517 33,000  Level Salt Lake Center
10:18AM 42.6233 -107.7731 135° Southeast 447 514 33,000  Level Salt Lake Center
10:19AM 42.5392 -107.6608 135° Southeast 445 512 33,000  Level Salt Lake Center
10:20AM 42.4406 -107.5275 135° Southeast 446 513 33,000  Level Salt Lake Center
10:21AM 42.3556 -107.4142 135° Southeast 447 514 33,000  Level Salt Lake Center
10:22AM 42.2550 -107.2811 136° Southeast 450 518 33,000  Level Salt Lake Center
10:23AM 42.1681 -107.1667 136° Southeast 454 522 33,000  Level Salt Lake Center
10:24AM 42.0806 -107.0508 135° Southeast 457 526 33,000  Level Salt Lake Center
10:25AM 41.9789 -106.9183 136° Southeast 456 525 33,000  Level Salt Lake Center
10:26AM 41.8919 -106.8047 136° Southeast 455 524 33,000  Level Salt Lake Center
10:27AM 41.8050 -106.6908 136° Southeast 455 524 33,000  Level Salt Lake Center
10:28AM 41.7044 -106.5600 136° Southeast 453 521 33,000  Level Salt Lake Center
10:29AM 41.6161 -106.4472 136° Southeast 456 525 33,000  Level Salt Lake Center
10:30AM 41.4992 -106.2983 136° Southeast 455 524 33,000  Level Denver Center
10:31AM 41.3814 -106.2117 151° Southeast 430 495 33,000  Level Denver Center
10:32AM 41.2764 -106.1678 163° South 418 481 33,000  Level Denver Center
10:33AM 41.1611 -106.1189 162° South 417 480 33,000  Level Denver Center
10:34AM 41.0511 -106.0600 158° South 426 490 33,000 -720 Level Denver Center
10:35AM 40.9400 -105.9931 156° South 434 499 31,600 -2,160 Descending Denver Center
10:36AM 40.8281 -105.8458 135° Southeast 472 543 28,600 -2,640 Descending Denver Center
10:37AM 40.7547 -105.7089 125° Southeast 464 534 26,200 -2,280 Descending Denver Center
10:38AM 40.6836 -105.5822 126° Southeast 439 505 23,900 -2,100 Descending Denver Center
10:39AM 40.6189 -105.4611 125° Southeast 421 484 21,900 -1,920 Descending Denver Center
10:40AM 40.5528 -105.3456 127° Southeast 408 470 20,000 -1,800 Descending Denver Center
10:42AM 40.4931 -105.2322 125° Southeast 388 447 18,300 -1,500 Descending Denver Center
10:43AM 40.4519 -105.0939 111° Southeast 364 419 16,900 -1,440 Descending Denver Center
10:44AM 40.4189 -104.9764 110° East 326 375 15,400 -1,320 Descending Denver Center
10:45AM 40.3872 -104.8739 112° Southeast 308 354 14,200 -1,200 Descending Denver Center
10:46AM 40.3436 -104.7847 123° Southeast 278 320 13,000 -1,200 Descending Denver Center
10:47AM 40.2883 -104.7319 144° Southeast 249 287 11,700 -1,380 Descending Denver Center
10:48AM 40.2278 -104.6856 150° Southeast 238 274 10,200 -1,260 Descending Denver Center
10:49AM 40.1661 -104.6822 178° South 223 257 9,100 -600 Descending Denver Center
10:50AM 40.1075 -104.6864 183° South 213 245 9,000 -300 Descending Denver Center
10:51AM 40.0578 -104.6847 179° South 172 198 8,600 -720 Descending Denver Center
10:52AM 40.0067 -104.6858 181° South 181 208 7,600 -1,020 Descending Denver Center
10:53AM 39.9483 -104.6864 180° South 192 221 6,600 -960 Descending Denver Center
10:54AM 39.9094 -104.6867 180° South 143 165 5,700 -660 Descending Denver Center
10:55AM 39.8772 -104.6867 180° South 112 129 5,300 -420 Descending Denver Center